createdAt,value
2022-09-30T00:00:42.237Z,991.23
2022-09-30T00:01:42.312Z,991.23
2022-09-30T00:02:42.301Z,991.2
2022-09-30T00:03:42.273Z,991.25
2022-09-30T00:04:42.286Z,991.22
2022-09-30T00:05:42.309Z,991.26
2022-09-30T00:06:42.321Z,991.24
2022-09-30T00:07:42.342Z,991.26
2022-09-30T00:08:42.355Z,991.21
2022-09-30T00:09:42.404Z,991.26
2022-09-30T00:10:42.386Z,991.25
2022-09-30T00:11:42.409Z,991.23
2022-09-30T00:12:42.421Z,991.22
2022-09-30T00:13:42.430Z,991.21
2022-09-30T00:14:42.450Z,991.22
2022-09-30T00:15:42.467Z,991.2
2022-09-30T00:16:42.573Z,991.19
2022-09-30T00:17:42.501Z,991.17
2022-09-30T00:18:42.515Z,991.18
2022-09-30T00:19:42.530Z,991.16
2022-09-30T00:20:42.551Z,991.18
2022-09-30T00:21:42.562Z,991.22
2022-09-30T00:22:42.585Z,991.17
2022-09-30T00:23:42.599Z,991.17
2022-09-30T00:24:42.616Z,991.2
2022-09-30T00:25:42.633Z,991.2
2022-09-30T00:26:42.651Z,991.2
2022-09-30T00:27:42.669Z,991.23
2022-09-30T00:28:42.684Z,991.22
2022-09-30T00:29:42.700Z,991.23
2022-09-30T00:30:42.720Z,991.26
2022-09-30T00:31:42.840Z,991.23
2022-09-30T00:32:42.763Z,991.24
2022-09-30T00:33:42.764Z,991.28
2022-09-30T00:34:42.780Z,991.28
2022-09-30T00:35:42.798Z,991.3
2022-09-30T00:36:42.811Z,991.3
2022-09-30T00:37:42.832Z,991.29
2022-09-30T00:38:42.849Z,991.31
2022-09-30T00:39:42.866Z,991.28
2022-09-30T00:40:42.880Z,991.28
2022-09-30T00:41:42.898Z,991.29
2022-09-30T00:42:42.913Z,991.26
2022-09-30T00:43:42.932Z,991.3
2022-09-30T00:44:42.948Z,991.25
2022-09-30T00:45:42.965Z,991.29
2022-09-30T00:46:44.961Z,991.31
2022-09-30T00:47:42.999Z,991.28
2022-09-30T00:48:43.037Z,991.29
2022-09-30T00:49:43.030Z,991.3
2022-09-30T00:50:43.096Z,991.31
2022-09-30T00:51:43.070Z,991.35
2022-09-30T00:52:43.078Z,991.38
2022-09-30T00:53:43.098Z,991.33
2022-09-30T00:54:43.112Z,991.42
2022-09-30T00:55:43.131Z,991.37
2022-09-30T00:56:43.147Z,991.41
2022-09-30T00:57:43.166Z,991.41
2022-09-30T00:58:43.177Z,991.42
2022-09-30T00:59:43.197Z,991.4
2022-09-30T01:00:43.280Z,991.43
2022-09-30T01:01:43.256Z,991.45
2022-09-30T01:02:43.257Z,991.45
2022-09-30T01:03:43.264Z,991.48
2022-09-30T01:04:43.305Z,991.5
2022-09-30T01:05:43.293Z,991.49
2022-09-30T01:06:43.312Z,991.51
2022-09-30T01:07:43.330Z,991.53
2022-09-30T01:08:43.343Z,991.52
2022-09-30T01:09:43.473Z,991.54
2022-09-30T01:10:43.377Z,991.54
2022-09-30T01:11:43.479Z,991.47
2022-09-30T01:12:43.411Z,991.53
2022-09-30T01:13:43.429Z,991.52
2022-09-30T01:14:43.442Z,991.51
2022-09-30T01:15:43.459Z,991.52
2022-09-30T01:16:43.477Z,991.53
2022-09-30T01:17:43.496Z,991.54
2022-09-30T01:18:43.509Z,991.5
2022-09-30T01:19:43.527Z,991.54
2022-09-30T01:20:43.569Z,991.55
2022-09-30T01:21:43.556Z,991.57
2022-09-30T01:22:43.574Z,991.59
2022-09-30T01:23:43.591Z,991.56
2022-09-30T01:24:43.610Z,991.57
2022-09-30T01:25:43.626Z,991.54
2022-09-30T01:26:43.640Z,991.54
2022-09-30T01:27:43.656Z,991.53
2022-09-30T01:28:43.675Z,991.51
2022-09-30T01:29:43.689Z,991.53
2022-09-30T01:30:43.707Z,991.56
2022-09-30T01:31:43.790Z,991.53
2022-09-30T01:32:43.741Z,991.53
2022-09-30T01:33:43.759Z,991.54
2022-09-30T01:34:43.774Z,991.55
2022-09-30T01:35:43.787Z,991.47
2022-09-30T01:36:43.832Z,991.5
2022-09-30T01:37:43.819Z,991.49
2022-09-30T01:38:43.839Z,991.5
2022-09-30T01:39:43.856Z,991.49
2022-09-30T01:40:43.873Z,991.47
2022-09-30T01:41:43.887Z,991.47
2022-09-30T01:42:43.907Z,991.47
2022-09-30T01:43:43.920Z,991.47
2022-09-30T01:44:43.939Z,991.44
2022-09-30T01:45:43.954Z,991.48
2022-09-30T01:46:44.000Z,991.52
2022-09-30T01:47:43.985Z,991.51
2022-09-30T01:48:44.002Z,991.53
2022-09-30T01:49:44.014Z,991.53
2022-09-30T01:50:44.291Z,991.52
2022-09-30T01:51:44.048Z,991.54
2022-09-30T01:52:44.092Z,991.56
2022-09-30T01:53:44.083Z,991.55
2022-09-30T01:54:44.102Z,991.56
2022-09-30T01:55:44.115Z,991.54
2022-09-30T01:56:44.135Z,991.53
2022-09-30T01:57:44.164Z,991.53
2022-09-30T01:58:44.168Z,991.51
2022-09-30T01:59:44.183Z,991.54
2022-09-30T02:00:44.271Z,991.54
2022-09-30T02:01:44.280Z,991.57
2022-09-30T02:02:44.233Z,991.61
2022-09-30T02:03:44.245Z,991.61
2022-09-30T02:04:44.264Z,991.58
2022-09-30T02:05:44.279Z,991.57
2022-09-30T02:06:44.298Z,991.6
2022-09-30T02:07:44.313Z,991.61
2022-09-30T02:08:44.356Z,991.62
2022-09-30T02:09:44.369Z,991.6
2022-09-30T02:10:44.364Z,991.58
2022-09-30T02:11:44.379Z,991.59
2022-09-30T02:12:44.397Z,991.6
2022-09-30T02:13:44.411Z,991.55
2022-09-30T02:14:44.429Z,991.6
2022-09-30T02:15:44.445Z,991.6
2022-09-30T02:16:44.460Z,991.56
2022-09-30T02:17:44.484Z,991.56
2022-09-30T02:18:44.496Z,991.58
2022-09-30T02:19:44.512Z,991.61
2022-09-30T02:20:44.532Z,991.62
2022-09-30T02:21:44.544Z,991.63
2022-09-30T02:22:44.563Z,991.61
2022-09-30T02:23:44.582Z,991.63
2022-09-30T02:24:44.614Z,991.63
2022-09-30T02:25:44.610Z,991.65
2022-09-30T02:26:44.624Z,991.66
2022-09-30T02:27:44.644Z,991.65
2022-09-30T02:28:44.659Z,991.62
2022-09-30T02:29:44.675Z,991.6
2022-09-30T02:30:44.689Z,991.63
2022-09-30T02:31:44.768Z,991.63
2022-09-30T02:32:44.724Z,991.6
2022-09-30T02:33:44.739Z,991.64
2022-09-30T02:34:44.753Z,991.61
2022-09-30T02:35:44.773Z,991.68
2022-09-30T02:36:44.787Z,991.63
2022-09-30T02:37:44.809Z,991.66
2022-09-30T02:38:44.819Z,991.66
2022-09-30T02:39:44.841Z,991.68
2022-09-30T02:40:44.877Z,991.71
2022-09-30T02:41:44.872Z,991.73
2022-09-30T02:42:44.885Z,991.74
2022-09-30T02:43:44.908Z,991.77
2022-09-30T02:44:44.917Z,991.8
2022-09-30T02:45:44.935Z,991.79
2022-09-30T02:46:45.011Z,991.79
2022-09-30T02:47:44.979Z,991.78
2022-09-30T02:48:44.986Z,991.82
2022-09-30T02:49:45.002Z,991.84
2022-09-30T02:50:45.365Z,991.8
2022-09-30T02:51:45.034Z,991.84
2022-09-30T02:52:45.046Z,991.82
2022-09-30T02:53:45.069Z,991.84
2022-09-30T02:54:45.082Z,991.83
2022-09-30T02:55:45.099Z,991.81
2022-09-30T02:56:45.141Z,991.8
2022-09-30T02:57:45.130Z,991.84
2022-09-30T02:58:45.146Z,991.82
2022-09-30T02:59:45.167Z,991.78
2022-09-30T03:00:45.226Z,991.77
2022-09-30T03:01:45.237Z,991.8
2022-09-30T03:02:45.210Z,991.74
2022-09-30T03:03:45.234Z,991.75
2022-09-30T03:04:45.246Z,991.74
2022-09-30T03:05:45.259Z,991.72
2022-09-30T03:06:45.276Z,991.72
2022-09-30T03:07:45.296Z,991.68
2022-09-30T03:08:45.309Z,991.68
2022-09-30T03:09:45.429Z,991.73
2022-09-30T03:10:45.346Z,991.71
2022-09-30T03:11:45.360Z,991.72
2022-09-30T03:12:45.398Z,991.71
2022-09-30T03:13:45.390Z,991.69
2022-09-30T03:14:45.411Z,991.7
2022-09-30T03:15:45.425Z,991.73
2022-09-30T03:16:45.439Z,991.77
2022-09-30T03:17:45.454Z,991.73
2022-09-30T03:18:45.475Z,991.76
2022-09-30T03:19:45.489Z,991.79
2022-09-30T03:20:45.509Z,991.79
2022-09-30T03:21:45.523Z,991.82
2022-09-30T03:22:45.539Z,991.83
2022-09-30T03:23:45.554Z,991.84
2022-09-30T03:24:45.570Z,991.87
2022-09-30T03:25:45.586Z,991.86
2022-09-30T03:26:45.604Z,991.88
2022-09-30T03:27:45.615Z,991.86
2022-09-30T03:28:45.661Z,991.87
2022-09-30T03:29:45.650Z,991.86
2022-09-30T03:30:45.671Z,991.89
2022-09-30T03:31:45.767Z,991.88
2022-09-30T03:32:45.698Z,991.89
2022-09-30T03:33:45.720Z,991.9
2022-09-30T03:34:45.732Z,991.88
2022-09-30T03:35:45.749Z,991.89
2022-09-30T03:36:45.765Z,991.86
2022-09-30T03:37:45.781Z,991.85
2022-09-30T03:38:45.797Z,991.88
2022-09-30T03:39:45.813Z,991.87
2022-09-30T03:40:45.830Z,991.9
2022-09-30T03:41:45.843Z,991.9
2022-09-30T03:42:45.865Z,991.88
2022-09-30T03:43:45.878Z,991.86
2022-09-30T03:44:45.982Z,991.89
2022-09-30T03:45:45.910Z,991.89
2022-09-30T03:46:45.986Z,991.87
2022-09-30T03:47:45.942Z,991.92
2022-09-30T03:48:45.963Z,991.95
2022-09-30T03:49:45.978Z,991.91
2022-09-30T03:50:46.393Z,991.9
2022-09-30T03:51:46.007Z,991.93
2022-09-30T03:52:46.025Z,991.94
2022-09-30T03:53:46.041Z,991.95
2022-09-30T03:54:46.058Z,991.93
2022-09-30T03:55:46.077Z,991.96
2022-09-30T03:56:46.091Z,991.96
2022-09-30T03:57:46.104Z,992
2022-09-30T03:58:46.123Z,992.02
2022-09-30T03:59:46.138Z,992.01
2022-09-30T04:00:46.224Z,992
2022-09-30T04:01:46.215Z,992.03
2022-09-30T04:02:46.186Z,992.02
2022-09-30T04:03:46.207Z,992.05
2022-09-30T04:04:46.218Z,992.04
2022-09-30T04:05:46.240Z,992.06
2022-09-30T04:06:46.250Z,992.06
2022-09-30T04:07:46.265Z,992.02
2022-09-30T04:08:46.283Z,992.06
2022-09-30T04:09:46.346Z,992.05
2022-09-30T04:10:46.313Z,992.07
2022-09-30T04:11:46.329Z,992.05
2022-09-30T04:12:46.343Z,992.04
2022-09-30T04:13:46.363Z,992.07
2022-09-30T04:14:46.378Z,992.08
2022-09-30T04:15:46.400Z,992.1
2022-09-30T04:16:48.669Z,992.12
2022-09-30T04:17:46.431Z,992.1
2022-09-30T04:18:46.442Z,992.16
2022-09-30T04:19:46.462Z,992.18
2022-09-30T04:20:46.479Z,992.13
2022-09-30T04:21:46.492Z,992.21
2022-09-30T04:22:46.506Z,992.16
2022-09-30T04:23:46.529Z,992.22
2022-09-30T04:24:46.544Z,992.19
2022-09-30T04:25:46.558Z,992.2
2022-09-30T04:26:46.572Z,992.21
2022-09-30T04:27:46.591Z,992.22
2022-09-30T04:28:46.606Z,992.25
2022-09-30T04:29:46.621Z,992.23
2022-09-30T04:30:46.636Z,992.26
2022-09-30T04:31:46.728Z,992.25
2022-09-30T04:32:46.697Z,992.29
2022-09-30T04:33:46.686Z,992.3
2022-09-30T04:34:46.700Z,992.31
2022-09-30T04:35:46.722Z,992.33
2022-09-30T04:36:46.732Z,992.39
2022-09-30T04:37:46.752Z,992.38
2022-09-30T04:38:46.763Z,992.39
2022-09-30T04:39:46.786Z,992.42
2022-09-30T04:40:46.801Z,992.39
2022-09-30T04:41:46.815Z,992.41
2022-09-30T04:42:46.828Z,992.47
2022-09-30T04:43:46.911Z,992.46
2022-09-30T04:44:46.862Z,992.5
2022-09-30T04:45:46.938Z,992.5
2022-09-30T04:46:46.893Z,992.51
2022-09-30T04:47:46.935Z,992.49
2022-09-30T04:48:46.951Z,992.55
2022-09-30T04:49:46.946Z,992.54
2022-09-30T04:50:47.114Z,992.54
2022-09-30T04:51:46.975Z,992.57
2022-09-30T04:52:46.992Z,992.61
2022-09-30T04:53:47.010Z,992.58
2022-09-30T04:54:47.024Z,992.56
2022-09-30T04:55:47.043Z,992.58
2022-09-30T04:56:47.061Z,992.56
2022-09-30T04:57:47.078Z,992.55
2022-09-30T04:58:47.091Z,992.61
2022-09-30T04:59:47.107Z,992.62
2022-09-30T05:00:47.153Z,992.61
2022-09-30T05:01:47.150Z,992.62
2022-09-30T05:02:47.159Z,992.67
2022-09-30T05:03:47.177Z,992.66
2022-09-30T05:04:47.212Z,992.68
2022-09-30T05:05:47.202Z,992.68
2022-09-30T05:06:47.221Z,992.72
2022-09-30T05:07:47.232Z,992.66
2022-09-30T05:08:47.251Z,992.73
2022-09-30T05:09:47.312Z,992.68
2022-09-30T05:10:47.281Z,992.73
2022-09-30T05:11:47.296Z,992.75
2022-09-30T05:12:47.318Z,992.76
2022-09-30T05:13:47.330Z,992.8
2022-09-30T05:14:47.346Z,992.81
2022-09-30T05:15:47.377Z,992.82
2022-09-30T05:16:47.380Z,992.82
2022-09-30T05:17:47.393Z,992.84
2022-09-30T05:18:47.415Z,992.85
2022-09-30T05:19:47.429Z,992.85
2022-09-30T05:20:47.553Z,992.85
2022-09-30T05:21:47.459Z,992.87
2022-09-30T05:22:47.483Z,992.89
2022-09-30T05:23:47.494Z,992.88
2022-09-30T05:24:47.508Z,992.93
2022-09-30T05:25:47.527Z,992.96
2022-09-30T05:26:47.542Z,992.99
2022-09-30T05:27:47.555Z,992.99
2022-09-30T05:28:47.574Z,992.95
2022-09-30T05:29:47.589Z,992.98
2022-09-30T05:30:47.605Z,992.97
2022-09-30T05:31:47.644Z,992.98
2022-09-30T05:32:47.639Z,993.01
2022-09-30T05:33:47.651Z,992.95
2022-09-30T05:34:47.669Z,992.95
2022-09-30T05:35:47.685Z,992.95
2022-09-30T05:36:47.726Z,992.94
2022-09-30T05:37:47.717Z,992.94
2022-09-30T05:38:47.734Z,992.99
2022-09-30T05:39:47.748Z,993
2022-09-30T05:40:47.777Z,993.02
2022-09-30T05:41:47.785Z,993.02
2022-09-30T05:42:47.797Z,993
2022-09-30T05:43:47.948Z,993
2022-09-30T05:44:47.832Z,993.01
2022-09-30T05:45:47.847Z,993.04
2022-09-30T05:46:47.963Z,993.01
2022-09-30T05:47:47.879Z,992.99
2022-09-30T05:48:47.889Z,993.03
2022-09-30T05:49:47.914Z,993
2022-09-30T05:50:48.124Z,993.07
2022-09-30T05:51:47.945Z,993.06
2022-09-30T05:52:47.981Z,993.06
2022-09-30T05:53:47.973Z,993.04
2022-09-30T05:54:47.989Z,993.06
2022-09-30T05:55:48.007Z,993.05
2022-09-30T05:56:48.020Z,993.08
2022-09-30T05:57:48.052Z,993.09
2022-09-30T05:58:48.052Z,993.13
2022-09-30T05:59:48.073Z,993.12
2022-09-30T06:00:48.087Z,993.16
2022-09-30T06:01:48.175Z,993.16
2022-09-30T06:02:48.242Z,993.22
2022-09-30T06:03:48.139Z,993.21
2022-09-30T06:04:48.149Z,993.24
2022-09-30T06:05:48.167Z,993.24
2022-09-30T06:06:48.181Z,993.26
2022-09-30T06:07:48.200Z,993.21
2022-09-30T06:08:48.297Z,993.2
2022-09-30T06:09:48.295Z,993.22
2022-09-30T06:10:48.249Z,993.2
2022-09-30T06:11:48.266Z,993.19
2022-09-30T06:12:48.278Z,993.19
2022-09-30T06:13:48.295Z,993.25
2022-09-30T06:14:48.313Z,993.22
2022-09-30T06:15:48.330Z,993.2
2022-09-30T06:16:48.420Z,993.25
2022-09-30T06:17:48.363Z,993.26
2022-09-30T06:18:48.374Z,993.27
2022-09-30T06:19:48.389Z,993.28
2022-09-30T06:20:48.406Z,993.28
2022-09-30T06:21:48.424Z,993.28
2022-09-30T06:22:48.439Z,993.31
2022-09-30T06:23:48.457Z,993.33
2022-09-30T06:24:51.526Z,993.35
2022-09-30T06:25:48.494Z,993.37
2022-09-30T06:26:48.506Z,993.36
2022-09-30T06:27:48.529Z,993.39
2022-09-30T06:28:48.535Z,993.42
2022-09-30T06:29:48.553Z,993.4
2022-09-30T06:30:48.566Z,993.4
2022-09-30T06:31:48.646Z,993.42
2022-09-30T06:32:48.603Z,993.44
2022-09-30T06:33:48.615Z,993.42
2022-09-30T06:34:48.633Z,993.46
2022-09-30T06:35:48.649Z,993.43
2022-09-30T06:36:48.667Z,993.47
2022-09-30T06:37:48.681Z,993.46
2022-09-30T06:38:48.699Z,993.49
2022-09-30T06:39:48.713Z,993.52
2022-09-30T06:40:48.754Z,993.56
2022-09-30T06:41:48.744Z,993.56
2022-09-30T06:42:48.762Z,993.59
2022-09-30T06:43:52.664Z,993.6
2022-09-30T06:44:53.022Z,993.59
2022-09-30T06:45:48.911Z,993.59
2022-09-30T06:46:53.765Z,993.67
2022-09-30T06:47:58.366Z,993.65
2022-09-30T06:48:48.860Z,993.71
2022-09-30T06:49:49.985Z,993.73
2022-09-30T06:50:58.667Z,993.72
2022-09-30T06:51:48.907Z,993.74
2022-09-30T06:52:48.925Z,993.8
2022-09-30T06:53:52.631Z,993.81
2022-09-30T06:54:48.958Z,993.75
2022-09-30T06:55:48.974Z,993.74
2022-09-30T06:56:49.012Z,993.75
2022-09-30T06:57:49.006Z,993.76
2022-09-30T06:58:49.023Z,993.76
2022-09-30T06:59:49.039Z,993.71
2022-09-30T07:00:49.164Z,993.76
2022-09-30T07:01:49.125Z,993.75
2022-09-30T07:02:49.089Z,993.77
2022-09-30T07:03:52.687Z,993.75
2022-09-30T07:04:49.133Z,993.75
2022-09-30T07:05:49.138Z,993.78
2022-09-30T07:06:49.153Z,993.76
2022-09-30T07:07:49.168Z,993.77
2022-09-30T07:08:49.191Z,993.8
2022-09-30T07:09:49.257Z,993.8
2022-09-30T07:10:49.222Z,993.81
2022-09-30T07:11:49.232Z,993.77
2022-09-30T07:12:49.275Z,993.8
2022-09-30T07:13:49.326Z,993.77
2022-09-30T07:14:49.282Z,993.76
2022-09-30T07:15:49.300Z,993.76
2022-09-30T07:16:49.345Z,993.74
2022-09-30T07:17:49.331Z,993.7
2022-09-30T07:18:49.353Z,993.72
2022-09-30T07:19:49.363Z,993.71
2022-09-30T07:20:49.383Z,993.74
2022-09-30T07:21:49.394Z,993.75
2022-09-30T07:22:49.413Z,993.83
2022-09-30T07:23:49.440Z,993.75
2022-09-30T07:24:49.444Z,993.81
2022-09-30T07:25:49.463Z,993.83
2022-09-30T07:26:49.477Z,993.83
2022-09-30T07:27:49.497Z,993.86
2022-09-30T07:28:49.534Z,993.86
2022-09-30T07:30:08.003Z,993.87
2022-09-30T07:30:49.546Z,993.88
2022-09-30T07:31:49.590Z,993.97
2022-09-30T07:32:49.577Z,993.93
2022-09-30T07:33:49.597Z,993.93
2022-09-30T07:34:49.610Z,993.94
2022-09-30T07:35:49.630Z,993.96
2022-09-30T07:36:49.642Z,993.98
2022-09-30T07:37:49.662Z,993.97
2022-09-30T07:38:49.677Z,994.01
2022-09-30T07:39:49.694Z,993.99
2022-09-30T07:40:49.711Z,993.96
2022-09-30T07:41:49.727Z,993.93
2022-09-30T07:42:49.740Z,993.94
2022-09-30T07:43:49.761Z,993.97
2022-09-30T07:44:49.917Z,993.93
2022-09-30T07:45:49.852Z,993.95
2022-09-30T07:46:49.809Z,993.93
2022-09-30T07:47:53.604Z,993.99
2022-09-30T07:48:49.843Z,993.98
2022-09-30T07:49:49.861Z,993.96
2022-09-30T07:50:50.276Z,993.96
2022-09-30T07:51:49.893Z,994.01
2022-09-30T07:52:49.906Z,994.02
2022-09-30T07:53:49.926Z,994.03
2022-09-30T07:54:50.776Z,994.01
2022-09-30T07:55:49.959Z,994.01
2022-09-30T07:57:49.990Z,994
2022-09-30T07:58:50.007Z,993.98
2022-09-30T07:59:50.026Z,993.96
2022-09-30T08:00:50.170Z,993.96
2022-09-30T08:01:50.087Z,993.98
2022-09-30T08:02:50.074Z,993.99
2022-09-30T08:03:50.094Z,993.96
2022-09-30T08:04:50.113Z,993.98
2022-09-30T08:05:50.127Z,993.99
2022-09-30T08:06:50.140Z,994.01
2022-09-30T08:07:50.159Z,993.98
2022-09-30T08:08:50.171Z,993.98
2022-09-30T08:09:50.241Z,994.02
2022-09-30T08:10:50.206Z,994.05
2022-09-30T08:11:50.226Z,994.01
2022-09-30T08:12:52.403Z,994.05
2022-09-30T08:13:50.259Z,994.09
2022-09-30T08:14:50.277Z,994.08
2022-09-30T08:15:50.290Z,994.07
2022-09-30T08:16:50.390Z,994.08
2022-09-30T08:17:50.326Z,994.04
2022-09-30T08:18:50.343Z,994.02
2022-09-30T08:19:50.357Z,994.02
2022-09-30T08:20:50.376Z,994.02
2022-09-30T08:21:50.490Z,994.04
2022-09-30T08:22:50.408Z,994.07
2022-09-30T08:23:50.423Z,994.1
2022-09-30T08:24:50.442Z,994.12
2022-09-30T08:25:50.457Z,994.19
2022-09-30T08:26:50.559Z,994.19
2022-09-30T08:27:50.489Z,994.21
2022-09-30T08:28:50.509Z,994.22
2022-09-30T08:29:54.758Z,994.21
2022-09-30T08:30:50.541Z,994.21
2022-09-30T08:31:50.649Z,994.25
2022-09-30T08:32:50.605Z,994.24
2022-09-30T08:33:50.593Z,994.25
2022-09-30T08:34:50.609Z,994.26
2022-09-30T08:35:50.634Z,994.27
2022-09-30T08:36:50.645Z,994.28
2022-09-30T08:37:50.858Z,994.29
2022-09-30T08:38:50.677Z,994.31
2022-09-30T08:39:50.704Z,994.26
2022-09-30T08:40:50.713Z,994.27
2022-09-30T08:41:50.724Z,994.31
2022-09-30T08:42:54.180Z,994.26
2022-09-30T08:43:50.762Z,994.27
2022-09-30T08:44:50.783Z,994.29
2022-09-30T08:45:50.845Z,994.32
2022-09-30T08:46:53.745Z,994.35
2022-09-30T08:47:50.878Z,994.35
2022-09-30T08:48:50.941Z,994.32
2022-09-30T08:49:50.860Z,994.33
2022-09-30T08:50:51.079Z,994.35
2022-09-30T08:51:50.897Z,994.36
2022-09-30T08:52:51.069Z,994.31
2022-09-30T08:53:50.931Z,994.35
2022-09-30T08:54:50.951Z,994.37
2022-09-30T08:55:50.961Z,994.35
2022-09-30T08:56:50.980Z,994.36
2022-09-30T08:57:50.991Z,994.31
2022-09-30T08:58:51.015Z,994.35
2022-09-30T08:59:51.030Z,994.34
2022-09-30T09:00:51.075Z,994.36
2022-09-30T09:01:51.083Z,994.39
2022-09-30T09:02:51.129Z,994.4
2022-09-30T09:03:51.094Z,994.37
2022-09-30T09:04:51.141Z,994.4
2022-09-30T09:05:51.804Z,994.42
2022-09-30T09:06:51.149Z,994.36
2022-09-30T09:07:51.163Z,994.42
2022-09-30T09:08:51.181Z,994.4
2022-09-30T09:09:51.201Z,994.4
2022-09-30T09:10:51.214Z,994.38
2022-09-30T09:11:51.235Z,994.4
2022-09-30T09:12:51.248Z,994.4
2022-09-30T09:13:51.269Z,994.38
2022-09-30T09:14:51.284Z,994.4
2022-09-30T09:15:51.299Z,994.38
2022-09-30T09:16:51.324Z,994.39
2022-09-30T09:18:11.245Z,994.35
2022-09-30T09:18:51.348Z,994.35
2022-09-30T09:19:51.368Z,994.35
2022-09-30T09:20:51.410Z,994.36
2022-09-30T09:21:51.402Z,994.36
2022-09-30T09:22:51.414Z,994.35
2022-09-30T09:23:51.438Z,994.35
2022-09-30T09:24:51.451Z,994.36
2022-09-30T09:25:51.471Z,994.33
2022-09-30T09:26:51.488Z,994.36
2022-09-30T09:27:51.563Z,994.38
2022-09-30T09:28:51.803Z,994.35
2022-09-30T09:29:51.538Z,994.35
2022-09-30T09:30:51.553Z,994.33
2022-09-30T09:31:51.730Z,994.3
2022-09-30T09:32:51.577Z,994.29
2022-09-30T09:33:51.605Z,994.29
2022-09-30T09:34:51.623Z,994.31
2022-09-30T09:35:51.637Z,994.29
2022-09-30T09:36:51.681Z,994.32
2022-09-30T09:37:51.668Z,994.27
2022-09-30T09:38:51.687Z,994.28
2022-09-30T09:39:51.711Z,994.27
2022-09-30T09:40:51.723Z,994.26
2022-09-30T09:41:51.741Z,994.27
2022-09-30T09:42:51.749Z,994.28
2022-09-30T09:43:51.782Z,994.26
2022-09-30T09:44:51.790Z,994.24
2022-09-30T09:45:51.867Z,994.26
2022-09-30T09:46:51.825Z,994.26
2022-09-30T09:47:51.842Z,994.26
2022-09-30T09:48:51.858Z,994.23
2022-09-30T09:49:55.239Z,994.25
2022-09-30T09:50:52.092Z,994.25
2022-09-30T09:51:51.911Z,994.24
2022-09-30T09:52:51.945Z,994.23
2022-09-30T09:53:51.948Z,994.24
2022-09-30T09:54:51.959Z,994.22
2022-09-30T09:55:51.977Z,994.24
2022-09-30T09:56:51.998Z,994.17
2022-09-30T09:57:52.011Z,994.22
2022-09-30T09:58:52.034Z,994.21
2022-09-30T09:59:52.055Z,994.24
2022-09-30T10:00:52.109Z,994.21
2022-09-30T10:01:52.139Z,994.24
2022-09-30T10:02:52.101Z,994.2
2022-09-30T10:03:52.114Z,994.2
2022-09-30T10:04:52.132Z,994.21
2022-09-30T10:05:52.151Z,994.22
2022-09-30T10:06:52.171Z,994.22
2022-09-30T10:07:52.183Z,994.24
2022-09-30T10:08:52.225Z,994.24
2022-09-30T10:09:52.216Z,994.22
2022-09-30T10:10:52.239Z,994.24
2022-09-30T10:11:52.251Z,994.22
2022-09-30T10:12:52.271Z,994.2
2022-09-30T10:13:52.287Z,994.26
2022-09-30T10:14:52.305Z,994.23
2022-09-30T10:15:52.387Z,994.2
2022-09-30T10:16:53.356Z,994.21
2022-09-30T10:17:52.352Z,994.22
2022-09-30T10:18:52.375Z,994.19
2022-09-30T10:19:52.387Z,994.16
2022-09-30T10:20:52.419Z,994.19
2022-09-30T10:21:53.981Z,994.17
2022-09-30T10:22:52.442Z,994.15
2022-09-30T10:23:52.459Z,994.12
2022-09-30T10:24:52.500Z,994.11
2022-09-30T10:25:52.493Z,994.1
2022-09-30T10:26:52.512Z,994.12
2022-09-30T10:27:52.556Z,994.06
2022-09-30T10:28:52.548Z,994.08
2022-09-30T10:29:52.561Z,994.08
2022-09-30T10:30:52.581Z,994.04
2022-09-30T10:31:56.087Z,994.13
2022-09-30T10:32:52.613Z,994.06
2022-09-30T10:33:52.632Z,994.11
2022-09-30T10:34:52.652Z,994.14
2022-09-30T10:35:52.665Z,994.15
2022-09-30T10:36:52.687Z,994.11
2022-09-30T10:37:52.703Z,994.13
2022-09-30T10:38:52.718Z,994.09
2022-09-30T10:39:52.733Z,994.15
2022-09-30T10:40:52.787Z,994.14
2022-09-30T10:41:52.765Z,994.18
2022-09-30T10:42:52.790Z,994.21
2022-09-30T10:43:52.805Z,994.18
2022-09-30T10:44:52.822Z,994.25
2022-09-30T10:46:13.676Z,994.24
2022-09-30T10:46:52.887Z,994.26
2022-09-30T10:47:52.868Z,994.29
2022-09-30T10:48:52.896Z,994.25
2022-09-30T10:49:52.910Z,994.28
2022-09-30T10:50:53.129Z,994.29
2022-09-30T10:51:52.946Z,994.28
2022-09-30T10:52:52.960Z,994.29
2022-09-30T10:53:52.979Z,994.31
2022-09-30T10:54:52.994Z,994.32
2022-09-30T10:55:53.016Z,994.31
2022-09-30T10:56:53.052Z,994.34
2022-09-30T10:57:53.047Z,994.34
2022-09-30T10:58:53.065Z,994.29
2022-09-30T10:59:53.083Z,994.28
2022-09-30T11:00:53.141Z,994.26
2022-09-30T11:01:54.984Z,994.28
2022-09-30T11:02:53.829Z,994.28
2022-09-30T11:03:53.195Z,994.29
2022-09-30T11:04:53.170Z,994.3
2022-09-30T11:05:53.191Z,994.29
2022-09-30T11:06:53.206Z,994.28
2022-09-30T11:07:53.218Z,994.33
2022-09-30T11:08:53.240Z,994.28
2022-09-30T11:09:53.263Z,994.33
2022-09-30T11:10:53.275Z,994.35
2022-09-30T11:11:53.294Z,994.35
2022-09-30T11:12:53.327Z,994.32
2022-09-30T11:13:53.332Z,994.27
2022-09-30T11:14:53.345Z,994.27
2022-09-30T11:15:53.428Z,994.35
2022-09-30T11:16:53.431Z,994.35
2022-09-30T11:17:53.394Z,994.35
2022-09-30T11:18:53.415Z,994.37
2022-09-30T11:19:53.428Z,994.38
2022-09-30T11:20:53.451Z,994.36
2022-09-30T11:21:53.469Z,994.36
2022-09-30T11:22:53.490Z,994.29
2022-09-30T11:23:53.505Z,994.31
2022-09-30T11:24:53.522Z,994.28
2022-09-30T11:25:53.541Z,994.29
2022-09-30T11:26:53.556Z,994.24
2022-09-30T11:27:53.615Z,994.2
2022-09-30T11:28:53.616Z,994.18
2022-09-30T11:29:53.608Z,994.19
2022-09-30T11:30:53.629Z,994.19
2022-09-30T11:31:53.676Z,994.16
2022-09-30T11:32:53.663Z,994.18
2022-09-30T11:33:53.681Z,994.22
2022-09-30T11:34:53.694Z,994.2
2022-09-30T11:35:53.718Z,994.22
2022-09-30T11:36:53.733Z,994.17
2022-09-30T11:37:53.751Z,994.17
2022-09-30T11:38:53.767Z,994.18
2022-09-30T11:39:53.791Z,994.21
2022-09-30T11:40:53.804Z,994.17
2022-09-30T11:41:53.821Z,994.17
2022-09-30T11:42:53.842Z,994.15
2022-09-30T11:43:53.857Z,994.13
2022-09-30T11:44:53.900Z,994.12
2022-09-30T11:45:53.959Z,994.11
2022-09-30T11:46:53.913Z,994.12
2022-09-30T11:47:53.929Z,994.09
2022-09-30T11:48:53.946Z,994.07
2022-09-30T11:49:53.962Z,994.08
2022-09-30T11:50:54.336Z,994.09
2022-09-30T11:51:53.999Z,994.04
2022-09-30T11:52:54.018Z,994.09
2022-09-30T11:53:54.034Z,994.14
2022-09-30T11:54:54.056Z,994.11
2022-09-30T11:55:54.070Z,994.14
2022-09-30T11:56:54.087Z,994.15
2022-09-30T11:57:54.104Z,994.16
2022-09-30T11:58:54.121Z,994.15
2022-09-30T11:59:54.138Z,994.16
2022-09-30T12:00:54.192Z,994.12
2022-09-30T12:01:54.232Z,994.16
2022-09-30T12:02:54.319Z,994.14
2022-09-30T12:03:54.211Z,994.09
2022-09-30T12:04:54.231Z,994.07
2022-09-30T12:05:54.247Z,994.12
2022-09-30T12:06:54.264Z,994.14
2022-09-30T12:07:54.283Z,994.14
2022-09-30T12:08:54.304Z,994.14
2022-09-30T12:09:54.316Z,994.16
2022-09-30T12:10:54.334Z,994.16
2022-09-30T12:11:54.354Z,994.2
2022-09-30T12:12:54.378Z,994.19
2022-09-30T12:13:54.389Z,994.19
2022-09-30T12:14:54.407Z,994.18
2022-09-30T12:15:54.423Z,994.17
2022-09-30T12:16:54.479Z,994.19
2022-09-30T12:17:54.457Z,994.15
2022-09-30T12:18:54.483Z,994.15
2022-09-30T12:19:54.494Z,994.14
2022-09-30T12:20:54.517Z,994.16
2022-09-30T12:21:54.533Z,994.12
2022-09-30T12:22:54.551Z,994.15
2022-09-30T12:23:54.568Z,994.13
2022-09-30T12:24:54.586Z,994.14
2022-09-30T12:25:54.604Z,994.14
2022-09-30T12:26:54.624Z,994.15
2022-09-30T12:27:54.689Z,994.13
2022-09-30T12:28:54.661Z,994.21
2022-09-30T12:29:54.678Z,994.18
2022-09-30T12:30:54.698Z,994.18
2022-09-30T12:31:54.924Z,994.17
2022-09-30T12:32:54.801Z,994.16